sensor_id;sensor_type;location;lat;lon;timestamp;pressure;altitude;pressure_sealevel;temperature
65569;BMP180;52211;50.154;8.682;2023-08-24T00:01:11;100279.00;;;25.70
65569;BMP180;52211;50.154;8.682;2023-08-24T00:03:40;100285.00;;;25.60
65569;BMP180;52211;50.154;8.682;2023-08-24T00:06:07;100285.00;;;25.60
65569;BMP180;52211;50.154;8.682;2023-08-24T00:08:34;100290.00;;;25.60
65569;BMP180;52211;50.154;8.682;2023-08-24T00:11:03;100289.00;;;25.50
65569;BMP180;52211;50.154;8.682;2023-08-24T00:13:31;100289.00;;;25.50
65569;BMP180;52211;50.154;8.682;2023-08-24T00:16:05;100289.00;;;25.40
65569;BMP180;52211;50.154;8.682;2023-08-24T00:18:34;100291.00;;;25.40
65569;BMP180;52211;50.154;8.682;2023-08-24T00:21:06;100287.00;;;25.40
65569;BMP180;52211;50.154;8.682;2023-08-24T00:23:36;100289.00;;;25.40
65569;BMP180;52211;50.154;8.682;2023-08-24T00:26:03;100284.00;;;25.40
65569;BMP180;52211;50.154;8.682;2023-08-24T00:28:35;100286.00;;;25.40
65569;BMP180;52211;50.154;8.682;2023-08-24T00:31:07;100284.00;;;25.40
65569;BMP180;52211;50.154;8.682;2023-08-24T00:33:34;100288.00;;;25.40
65569;BMP180;52211;50.154;8.682;2023-08-24T00:36:06;100280.00;;;25.40
65569;BMP180;52211;50.154;8.682;2023-08-24T00:38:33;100282.00;;;25.40
65569;BMP180;52211;50.154;8.682;2023-08-24T00:41:02;100274.00;;;25.40
65569;BMP180;52211;50.154;8.682;2023-08-24T00:43:29;100265.00;;;25.30
65569;BMP180;52211;50.154;8.682;2023-08-24T00:45:59;100263.00;;;25.30
65569;BMP180;52211;50.154;8.682;2023-08-24T00:48:30;100264.00;;;25.40
65569;BMP180;52211;50.154;8.682;2023-08-24T00:51:01;100267.00;;;25.30
65569;BMP180;52211;50.154;8.682;2023-08-24T00:53:32;100270.00;;;25.30
65569;BMP180;52211;50.154;8.682;2023-08-24T00:56:02;100269.00;;;25.30
65569;BMP180;52211;50.154;8.682;2023-08-24T00:58:33;100269.00;;;25.30
65569;BMP180;52211;50.154;8.682;2023-08-24T01:01:03;100268.00;;;25.30
65569;BMP180;52211;50.154;8.682;2023-08-24T01:03:33;100278.00;;;25.30
65569;BMP180;52211;50.154;8.682;2023-08-24T01:06:00;100281.00;;;25.30
65569;BMP180;52211;50.154;8.682;2023-08-24T01:08:32;100283.00;;;25.30
65569;BMP180;52211;50.154;8.682;2023-08-24T01:14:15;100291.00;;;25.20
65569;BMP180;52211;50.154;8.682;2023-08-24T01:16:47;100299.00;;;25.20
65569;BMP180;52211;50.154;8.682;2023-08-24T01:19:39;100299.00;;;25.10
65569;BMP180;52211;50.154;8.682;2023-08-24T01:25:34;100298.00;;;25.10
65569;BMP180;52211;50.154;8.682;2023-08-24T01:28:11;100300.00;;;25.10
65569;BMP180;52211;50.154;8.682;2023-08-24T01:30:44;100300.00;;;25.10
65569;BMP180;52211;50.154;8.682;2023-08-24T01:33:14;100305.00;;;25.00
65569;BMP180;52211;50.154;8.682;2023-08-24T01:35:41;100298.00;;;25.00
65569;BMP180;52211;50.154;8.682;2023-08-24T01:38:11;100288.00;;;25.00
65569;BMP180;52211;50.154;8.682;2023-08-24T01:41:10;100276.00;;;25.00
65569;BMP180;52211;50.154;8.682;2023-08-24T01:43:43;100285.00;;;25.00
65569;BMP180;52211;50.154;8.682;2023-08-24T01:46:15;100274.00;;;25.00
65569;BMP180;52211;50.154;8.682;2023-08-24T01:48:45;100277.00;;;25.00
65569;BMP180;52211;50.154;8.682;2023-08-24T01:51:13;100281.00;;;25.00
65569;BMP180;52211;50.154;8.682;2023-08-24T01:53:43;100282.00;;;25.00
65569;BMP180;52211;50.154;8.682;2023-08-24T01:56:16;100278.00;;;25.00
65569;BMP180;52211;50.154;8.682;2023-08-24T01:58:43;100280.00;;;25.00
65569;BMP180;52211;50.154;8.682;2023-08-24T02:01:10;100277.00;;;25.00
65569;BMP180;52211;50.154;8.682;2023-08-24T02:03:39;100268.00;;;25.00
65569;BMP180;52211;50.154;8.682;2023-08-24T02:06:11;100270.00;;;25.00
65569;BMP180;52211;50.154;8.682;2023-08-24T02:08:39;100268.00;;;25.00
65569;BMP180;52211;50.154;8.682;2023-08-24T02:11:07;100262.00;;;24.90
65569;BMP180;52211;50.154;8.682;2023-08-24T02:13:34;100265.00;;;24.90
65569;BMP180;52211;50.154;8.682;2023-08-24T02:16:03;100259.00;;;24.90
65569;BMP180;52211;50.154;8.682;2023-08-24T02:18:35;100253.00;;;24.90
65569;BMP180;52211;50.154;8.682;2023-08-24T02:21:10;100256.00;;;24.90
65569;BMP180;52211;50.154;8.682;2023-08-24T02:23:40;100263.00;;;24.80
65569;BMP180;52211;50.154;8.682;2023-08-24T02:26:09;100250.00;;;24.80
65569;BMP180;52211;50.154;8.682;2023-08-24T02:28:41;100251.00;;;24.80
65569;BMP180;52211;50.154;8.682;2023-08-24T02:31:09;100251.00;;;24.80
65569;BMP180;52211;50.154;8.682;2023-08-24T02:33:38;100241.00;;;24.90
65569;BMP180;52211;50.154;8.682;2023-08-24T02:36:10;100240.00;;;24.90
65569;BMP180;52211;50.154;8.682;2023-08-24T02:38:44;100236.00;;;24.90
65569;BMP180;52211;50.154;8.682;2023-08-24T02:41:13;100238.00;;;24.90
65569;BMP180;52211;50.154;8.682;2023-08-24T02:43:42;100230.00;;;24.90
65569;BMP180;52211;50.154;8.682;2023-08-24T02:46:12;100228.00;;;24.90
65569;BMP180;52211;50.154;8.682;2023-08-24T02:48:39;100231.00;;;24.90
65569;BMP180;52211;50.154;8.682;2023-08-24T02:51:11;100232.00;;;24.90
65569;BMP180;52211;50.154;8.682;2023-08-24T02:53:40;100235.00;;;24.90
65569;BMP180;52211;50.154;8.682;2023-08-24T02:56:09;100239.00;;;24.90
65569;BMP180;52211;50.154;8.682;2023-08-24T02:58:38;100238.00;;;24.90
65569;BMP180;52211;50.154;8.682;2023-08-24T03:01:06;100228.00;;;24.90
65569;BMP180;52211;50.154;8.682;2023-08-24T03:03:41;100232.00;;;24.90
65569;BMP180;52211;50.154;8.682;2023-08-24T03:06:08;100228.00;;;25.00
65569;BMP180;52211;50.154;8.682;2023-08-24T03:08:40;100230.00;;;25.00
65569;BMP180;52211;50.154;8.682;2023-08-24T03:11:11;100226.00;;;25.00
65569;BMP180;52211;50.154;8.682;2023-08-24T03:13:40;100222.00;;;25.00
65569;BMP180;52211;50.154;8.682;2023-08-24T03:16:10;100210.00;;;25.00
65569;BMP180;52211;50.154;8.682;2023-08-24T03:18:38;100207.00;;;25.00
65569;BMP180;52211;50.154;8.682;2023-08-24T03:21:11;100204.00;;;24.90
65569;BMP180;52211;50.154;8.682;2023-08-24T03:23:41;100208.00;;;24.90
65569;BMP180;52211;50.154;8.682;2023-08-24T03:26:10;100210.00;;;24.90
65569;BMP180;52211;50.154;8.682;2023-08-24T03:28:43;100218.00;;;24.90
65569;BMP180;52211;50.154;8.682;2023-08-24T03:31:17;100221.00;;;24.80
65569;BMP180;52211;50.154;8.682;2023-08-24T03:33:46;100222.00;;;24.80
65569;BMP180;52211;50.154;8.682;2023-08-24T03:36:15;100221.00;;;24.80
65569;BMP180;52211;50.154;8.682;2023-08-24T03:38:47;100214.00;;;24.80
65569;BMP180;52211;50.154;8.682;2023-08-24T03:41:14;100205.00;;;24.80
65569;BMP180;52211;50.154;8.682;2023-08-24T03:43:43;100198.00;;;24.80
65569;BMP180;52211;50.154;8.682;2023-08-24T03:46:10;100196.00;;;24.70
65569;BMP180;52211;50.154;8.682;2023-08-24T03:48:40;100201.00;;;24.70
65569;BMP180;52211;50.154;8.682;2023-08-24T03:51:07;100200.00;;;24.70
65569;BMP180;52211;50.154;8.682;2023-08-24T03:53:36;100192.00;;;24.70
65569;BMP180;52211;50.154;8.682;2023-08-24T03:56:06;100182.00;;;24.70
65569;BMP180;52211;50.154;8.682;2023-08-24T03:58:33;100182.00;;;24.70
65569;BMP180;52211;50.154;8.682;2023-08-24T04:01:14;100180.00;;;24.60
65569;BMP180;52211;50.154;8.682;2023-08-24T04:03:44;100179.00;;;24.70
65569;BMP180;52211;50.154;8.682;2023-08-24T04:06:13;100175.00;;;24.70
65569;BMP180;52211;50.154;8.682;2023-08-24T04:08:43;100170.00;;;24.60
65569;BMP180;52211;50.154;8.682;2023-08-24T04:11:12;100171.00;;;24.60
65569;BMP180;52211;50.154;8.682;2023-08-24T04:13:39;100170.00;;;24.60
65569;BMP180;52211;50.154;8.682;2023-08-24T04:16:10;100178.00;;;24.60
65569;BMP180;52211;50.154;8.682;2023-08-24T04:18:42;100176.00;;;24.60
65569;BMP180;52211;50.154;8.682;2023-08-24T04:21:11;100185.00;;;24.50
65569;BMP180;52211;50.154;8.682;2023-08-24T04:23:38;100182.00;;;24.50
65569;BMP180;52211;50.154;8.682;2023-08-24T04:26:05;100171.00;;;24.50
65569;BMP180;52211;50.154;8.682;2023-08-24T04:28:32;100146.00;;;24.60
65569;BMP180;52211;50.154;8.682;2023-08-24T04:30:58;100095.00;;;24.50
65569;BMP180;52211;50.154;8.682;2023-08-24T04:33:28;100112.00;;;24.50
65569;BMP180;52211;50.154;8.682;2023-08-24T04:35:58;100162.00;;;24.40
65569;BMP180;52211;50.154;8.682;2023-08-24T04:38:25;100163.00;;;24.40
65569;BMP180;52211;50.154;8.682;2023-08-24T04:40:54;100139.00;;;24.40
65569;BMP180;52211;50.154;8.682;2023-08-24T04:43:24;100141.00;;;24.40
65569;BMP180;52211;50.154;8.682;2023-08-24T04:45:58;100152.00;;;24.40
65569;BMP180;52211;50.154;8.682;2023-08-24T04:48:28;100159.00;;;24.30
65569;BMP180;52211;50.154;8.682;2023-08-24T04:51:03;100149.00;;;24.30
65569;BMP180;52211;50.154;8.682;2023-08-24T04:53:35;100155.00;;;24.30
65569;BMP180;52211;50.154;8.682;2023-08-24T04:56:02;100156.00;;;24.30
65569;BMP180;52211;50.154;8.682;2023-08-24T04:58:29;100159.00;;;24.30
65569;BMP180;52211;50.154;8.682;2023-08-24T05:00:58;100153.00;;;24.30
65569;BMP180;52211;50.154;8.682;2023-08-24T05:03:27;100170.00;;;24.30
65569;BMP180;52211;50.154;8.682;2023-08-24T05:05:56;100182.00;;;24.30
65569;BMP180;52211;50.154;8.682;2023-08-24T05:08:26;100192.00;;;24.30
65569;BMP180;52211;50.154;8.682;2023-08-24T05:11:07;100218.00;;;24.30
65569;BMP180;52211;50.154;8.682;2023-08-24T05:13:39;100257.00;;;24.40
65569;BMP180;52211;50.154;8.682;2023-08-24T05:16:10;100259.00;;;24.40
65569;BMP180;52211;50.154;8.682;2023-08-24T05:18:37;100277.00;;;24.40
65569;BMP180;52211;50.154;8.682;2023-08-24T05:21:04;100281.00;;;24.40
65569;BMP180;52211;50.154;8.682;2023-08-24T05:23:33;100280.00;;;24.40
65569;BMP180;52211;50.154;8.682;2023-08-24T05:26:03;100280.00;;;24.50
65569;BMP180;52211;50.154;8.682;2023-08-24T05:28:31;100296.00;;;24.50
65569;BMP180;52211;50.154;8.682;2023-08-24T05:31:02;100308.00;;;24.50
65569;BMP180;52211;50.154;8.682;2023-08-24T05:33:31;100313.00;;;24.50
65569;BMP180;52211;50.154;8.682;2023-08-24T05:36:00;100306.00;;;24.50
65569;BMP180;52211;50.154;8.682;2023-08-24T05:38:27;100309.00;;;24.60
65569;BMP180;52211;50.154;8.682;2023-08-24T05:40:56;100301.00;;;24.60
65569;BMP180;52211;50.154;8.682;2023-08-24T05:43:23;100287.00;;;24.60
65569;BMP180;52211;50.154;8.682;2023-08-24T05:45:52;100281.00;;;24.70
65569;BMP180;52211;50.154;8.682;2023-08-24T05:48:23;100282.00;;;24.70
65569;BMP180;52211;50.154;8.682;2023-08-24T05:50:53;100285.00;;;24.80
65569;BMP180;52211;50.154;8.682;2023-08-24T05:53:20;100280.00;;;24.80
65569;BMP180;52211;50.154;8.682;2023-08-24T05:55:47;100287.00;;;24.80
65569;BMP180;52211;50.154;8.682;2023-08-24T05:58:17;100283.00;;;24.90
65569;BMP180;52211;50.154;8.682;2023-08-24T06:00:43;100294.00;;;24.90
65569;BMP180;52211;50.154;8.682;2023-08-24T06:03:10;100287.00;;;25.00
65569;BMP180;52211;50.154;8.682;2023-08-24T06:05:37;100288.00;;;25.00
65569;BMP180;52211;50.154;8.682;2023-08-24T06:08:05;100292.00;;;25.10
65569;BMP180;52211;50.154;8.682;2023-08-24T06:10:37;100297.00;;;25.20
65569;BMP180;52211;50.154;8.682;2023-08-24T06:13:08;100289.00;;;25.20
65569;BMP180;52211;50.154;8.682;2023-08-24T06:15:37;100294.00;;;25.30
65569;BMP180;52211;50.154;8.682;2023-08-24T06:18:09;100294.00;;;25.30
65569;BMP180;52211;50.154;8.682;2023-08-24T06:20:36;100298.00;;;25.40
65569;BMP180;52211;50.154;8.682;2023-08-24T06:23:05;100312.00;;;25.40
65569;BMP180;52211;50.154;8.682;2023-08-24T06:25:38;100303.00;;;25.50
65569;BMP180;52211;50.154;8.682;2023-08-24T06:28:07;100289.00;;;25.50
65569;BMP180;52211;50.154;8.682;2023-08-24T06:30:42;100273.00;;;25.60
65569;BMP180;52211;50.154;8.682;2023-08-24T06:33:12;100265.00;;;25.60
65569;BMP180;52211;50.154;8.682;2023-08-24T06:35:42;100272.00;;;25.70
65569;BMP180;52211;50.154;8.682;2023-08-24T06:38:08;100279.00;;;25.70
65569;BMP180;52211;50.154;8.682;2023-08-24T06:40:35;100289.00;;;25.80
65569;BMP180;52211;50.154;8.682;2023-08-24T06:43:04;100284.00;;;25.80
65569;BMP180;52211;50.154;8.682;2023-08-24T06:45:34;100275.00;;;25.80
65569;BMP180;52211;50.154;8.682;2023-08-24T06:48:06;100238.00;;;25.80
65569;BMP180;52211;50.154;8.682;2023-08-24T06:50:34;100222.00;;;25.80
65569;BMP180;52211;50.154;8.682;2023-08-24T06:53:01;100194.00;;;25.80
65569;BMP180;52211;50.154;8.682;2023-08-24T06:55:30;100156.00;;;25.80
65569;BMP180;52211;50.154;8.682;2023-08-24T06:57:57;100133.00;;;25.80
65569;BMP180;52211;50.154;8.682;2023-08-24T07:00:24;100134.00;;;25.70
65569;BMP180;52211;50.154;8.682;2023-08-24T07:02:55;100127.00;;;25.70
65569;BMP180;52211;50.154;8.682;2023-08-24T07:05:29;100149.00;;;25.70
65569;BMP180;52211;50.154;8.682;2023-08-24T07:08:03;100175.00;;;25.70
65569;BMP180;52211;50.154;8.682;2023-08-24T07:10:35;100193.00;;;25.70
65569;BMP180;52211;50.154;8.682;2023-08-24T07:13:07;100211.00;;;25.70
65569;BMP180;52211;50.154;8.682;2023-08-24T07:15:41;100213.00;;;25.70
65569;BMP180;52211;50.154;8.682;2023-08-24T07:18:11;100206.00;;;25.80
65569;BMP180;52211;50.154;8.682;2023-08-24T07:20:40;100195.00;;;25.80
65569;BMP180;52211;50.154;8.682;2023-08-24T07:23:07;100188.00;;;25.80
65569;BMP180;52211;50.154;8.682;2023-08-24T07:25:36;100167.00;;;25.80
65569;BMP180;52211;50.154;8.682;2023-08-24T07:28:05;100165.00;;;25.90
65569;BMP180;52211;50.154;8.682;2023-08-24T07:30:40;100162.00;;;25.90
65569;BMP180;52211;50.154;8.682;2023-08-24T07:33:07;100181.00;;;25.90
65569;BMP180;52211;50.154;8.682;2023-08-24T07:35:36;100179.00;;;25.90
65569;BMP180;52211;50.154;8.682;2023-08-24T07:38:08;100181.00;;;25.90
65569;BMP180;52211;50.154;8.682;2023-08-24T07:40:37;100188.00;;;25.90
65569;BMP180;52211;50.154;8.682;2023-08-24T07:43:09;100175.00;;;26.00
65569;BMP180;52211;50.154;8.682;2023-08-24T07:45:36;100185.00;;;26.00
65569;BMP180;52211;50.154;8.682;2023-08-24T07:48:09;100198.00;;;26.00
65569;BMP180;52211;50.154;8.682;2023-08-24T07:50:39;100192.00;;;26.00
65569;BMP180;52211;50.154;8.682;2023-08-24T07:53:06;100183.00;;;26.00
65569;BMP180;52211;50.154;8.682;2023-08-24T07:55:37;100190.00;;;26.00
65569;BMP180;52211;50.154;8.682;2023-08-24T07:58:07;100187.00;;;26.10
65569;BMP180;52211;50.154;8.682;2023-08-24T08:00:36;100168.00;;;26.10
65569;BMP180;52211;50.154;8.682;2023-08-24T08:03:03;100145.00;;;26.10
65569;BMP180;52211;50.154;8.682;2023-08-24T08:05:30;100124.00;;;26.10
65569;BMP180;52211;50.154;8.682;2023-08-24T08:07:59;100121.00;;;26.10
65569;BMP180;52211;50.154;8.682;2023-08-24T08:10:30;100125.00;;;26.20
65569;BMP180;52211;50.154;8.682;2023-08-24T08:13:00;100108.00;;;26.20
65569;BMP180;52211;50.154;8.682;2023-08-24T08:15:27;100089.00;;;26.10
65569;BMP180;52211;50.154;8.682;2023-08-24T08:17:56;100090.00;;;26.10
65569;BMP180;52211;50.154;8.682;2023-08-24T08:20:23;100109.00;;;26.10
65569;BMP180;52211;50.154;8.682;2023-08-24T08:22:52;100140.00;;;26.20
65569;BMP180;52211;50.154;8.682;2023-08-24T08:25:19;100151.00;;;26.20
65569;BMP180;52211;50.154;8.682;2023-08-24T08:27:53;100154.00;;;26.20
65569;BMP180;52211;50.154;8.682;2023-08-24T08:30:22;100139.00;;;26.20
65569;BMP180;52211;50.154;8.682;2023-08-24T08:32:51;100129.00;;;26.20
65569;BMP180;52211;50.154;8.682;2023-08-24T08:35:22;100124.00;;;26.30
65569;BMP180;52211;50.154;8.682;2023-08-24T08:37:51;100129.00;;;26.40
65569;BMP180;52211;50.154;8.682;2023-08-24T08:40:29;100136.00;;;26.40
65569;BMP180;52211;50.154;8.682;2023-08-24T08:43:00;100136.00;;;26.40
65569;BMP180;52211;50.154;8.682;2023-08-24T08:45:29;100122.00;;;26.50
65569;BMP180;52211;50.154;8.682;2023-08-24T08:48:02;100108.00;;;26.50
65569;BMP180;52211;50.154;8.682;2023-08-24T08:50:34;100093.00;;;26.50
65569;BMP180;52211;50.154;8.682;2023-08-24T08:53:02;100096.00;;;26.60
65569;BMP180;52211;50.154;8.682;2023-08-24T08:55:30;100090.00;;;26.70
65569;BMP180;52211;50.154;8.682;2023-08-24T08:58:00;100103.00;;;26.70
65569;BMP180;52211;50.154;8.682;2023-08-24T09:00:30;100090.00;;;26.80
65569;BMP180;52211;50.154;8.682;2023-08-24T09:03:02;100090.00;;;26.80
65569;BMP180;52211;50.154;8.682;2023-08-24T09:05:32;100091.00;;;26.90
65569;BMP180;52211;50.154;8.682;2023-08-24T09:08:07;100088.00;;;27.00
65569;BMP180;52211;50.154;8.682;2023-08-24T09:10:34;100088.00;;;27.10
65569;BMP180;52211;50.154;8.682;2023-08-24T09:13:03;100085.00;;;27.10
65569;BMP180;52211;50.154;8.682;2023-08-24T09:15:35;100081.00;;;27.20
65569;BMP180;52211;50.154;8.682;2023-08-24T09:18:05;100078.00;;;27.30
65569;BMP180;52211;50.154;8.682;2023-08-24T09:20:34;100074.00;;;27.40
65569;BMP180;52211;50.154;8.682;2023-08-24T09:23:03;100078.00;;;27.50
65569;BMP180;52211;50.154;8.682;2023-08-24T09:25:32;100070.00;;;27.60
65569;BMP180;52211;50.154;8.682;2023-08-24T09:28:05;100074.00;;;27.60
65569;BMP180;52211;50.154;8.682;2023-08-24T09:30:37;100074.00;;;27.70
65569;BMP180;52211;50.154;8.682;2023-08-24T09:33:10;100063.00;;;27.80
65569;BMP180;52211;50.154;8.682;2023-08-24T09:35:40;100066.00;;;27.90
65569;BMP180;52211;50.154;8.682;2023-08-24T09:38:18;100066.00;;;28.00
65569;BMP180;52211;50.154;8.682;2023-08-24T09:40:47;100065.00;;;28.10
65569;BMP180;52211;50.154;8.682;2023-08-24T09:43:20;100050.00;;;28.10
65569;BMP180;52211;50.154;8.682;2023-08-24T09:45:55;100037.00;;;28.20
65569;BMP180;52211;50.154;8.682;2023-08-24T09:48:25;100032.00;;;28.30
65569;BMP180;52211;50.154;8.682;2023-08-24T09:51:03;100027.00;;;28.40
65569;BMP180;52211;50.154;8.682;2023-08-24T09:53:39;100021.00;;;28.50
65569;BMP180;52211;50.154;8.682;2023-08-24T09:56:11;100006.00;;;28.60
65569;BMP180;52211;50.154;8.682;2023-08-24T09:58:43;99995.00;;;28.70
65569;BMP180;52211;50.154;8.682;2023-08-24T10:01:18;99995.00;;;28.80
65569;BMP180;52211;50.154;8.682;2023-08-24T10:03:51;99992.00;;;28.90
65569;BMP180;52211;50.154;8.682;2023-08-24T10:06:27;99989.00;;;29.00
65569;BMP180;52211;50.154;8.682;2023-08-24T10:09:07;99981.00;;;29.10
65569;BMP180;52211;50.154;8.682;2023-08-24T10:11:48;99986.00;;;29.30
65569;BMP180;52211;50.154;8.682;2023-08-24T10:16:52;99983.00;;;29.50
65569;BMP180;52211;50.154;8.682;2023-08-24T10:19:24;99976.00;;;29.60
65569;BMP180;52211;50.154;8.682;2023-08-24T10:21:55;99968.00;;;29.80
65569;BMP180;52211;50.154;8.682;2023-08-24T10:24:24;99966.00;;;29.90
65569;BMP180;52211;50.154;8.682;2023-08-24T10:26:51;99967.00;;;30.00
65569;BMP180;52211;50.154;8.682;2023-08-24T10:29:22;99957.00;;;30.10
65569;BMP180;52211;50.154;8.682;2023-08-24T10:31:52;99962.00;;;30.20
65569;BMP180;52211;50.154;8.682;2023-08-24T10:34:24;99955.00;;;30.30
65569;BMP180;52211;50.154;8.682;2023-08-24T10:37:07;99963.00;;;30.50
65569;BMP180;52211;50.154;8.682;2023-08-24T10:39:47;99962.00;;;30.60
65569;BMP180;52211;50.154;8.682;2023-08-24T10:42:14;99955.00;;;30.80
65569;BMP180;52211;50.154;8.682;2023-08-24T10:44:47;99959.00;;;30.90
65569;BMP180;52211;50.154;8.682;2023-08-24T10:47:16;99963.00;;;31.10
65569;BMP180;52211;50.154;8.682;2023-08-24T10:52:35;99965.00;;;31.30
65569;BMP180;52211;50.154;8.682;2023-08-24T10:55:26;99952.00;;;31.40
65569;BMP180;52211;50.154;8.682;2023-08-24T10:58:00;99954.00;;;31.50
65569;BMP180;52211;50.154;8.682;2023-08-24T11:00:29;99950.00;;;31.70
65569;BMP180;52211;50.154;8.682;2023-08-24T11:02:57;99946.00;;;31.80
65569;BMP180;52211;50.154;8.682;2023-08-24T11:05:32;99949.00;;;31.90
65569;BMP180;52211;50.154;8.682;2023-08-24T11:08:07;99949.00;;;32.00
65569;BMP180;52211;50.154;8.682;2023-08-24T11:13:18;99947.00;;;32.30
65569;BMP180;52211;50.154;8.682;2023-08-24T11:15:54;99947.00;;;32.50
65569;BMP180;52211;50.154;8.682;2023-08-24T11:23:29;99950.00;;;32.80
65569;BMP180;52211;50.154;8.682;2023-08-24T11:26:00;99952.00;;;32.90
65569;BMP180;52211;50.154;8.682;2023-08-24T11:28:34;99951.00;;;33.00
65569;BMP180;52211;50.154;8.682;2023-08-24T11:31:09;99933.00;;;33.10
65569;BMP180;52211;50.154;8.682;2023-08-24T11:33:38;99925.00;;;33.20
65569;BMP180;52211;50.154;8.682;2023-08-24T11:36:08;99918.00;;;33.40
65569;BMP180;52211;50.154;8.682;2023-08-24T11:38:39;99910.00;;;33.50
65569;BMP180;52211;50.154;8.682;2023-08-24T11:41:19;99910.00;;;33.70
65569;BMP180;52211;50.154;8.682;2023-08-24T11:43:49;99904.00;;;33.80
65569;BMP180;52211;50.154;8.682;2023-08-24T11:46:20;99898.00;;;34.00
65569;BMP180;52211;50.154;8.682;2023-08-24T11:48:52;99887.00;;;34.20
65569;BMP180;52211;50.154;8.682;2023-08-24T11:51:22;99893.00;;;34.30
65569;BMP180;52211;50.154;8.682;2023-08-24T11:54:10;99888.00;;;34.50
65569;BMP180;52211;50.154;8.682;2023-08-24T11:56:46;99878.00;;;34.60
65569;BMP180;52211;50.154;8.682;2023-08-24T11:59:14;99891.00;;;34.80
65569;BMP180;52211;50.154;8.682;2023-08-24T12:01:49;99885.00;;;34.90
65569;BMP180;52211;50.154;8.682;2023-08-24T12:04:18;99884.00;;;34.90
65569;BMP180;52211;50.154;8.682;2023-08-24T12:06:45;99877.00;;;35.10
65569;BMP180;52211;50.154;8.682;2023-08-24T12:09:15;99871.00;;;35.20
65569;BMP180;52211;50.154;8.682;2023-08-24T12:11:42;99860.00;;;35.40
65569;BMP180;52211;50.154;8.682;2023-08-24T12:14:17;99863.00;;;35.50
65569;BMP180;52211;50.154;8.682;2023-08-24T12:16:46;99858.00;;;35.60
65569;BMP180;52211;50.154;8.682;2023-08-24T12:19:16;99855.00;;;35.70
65569;BMP180;52211;50.154;8.682;2023-08-24T12:21:50;99855.00;;;35.80
65569;BMP180;52211;50.154;8.682;2023-08-24T12:24:17;99861.00;;;35.80
65569;BMP180;52211;50.154;8.682;2023-08-24T12:27:00;99852.00;;;35.80
65569;BMP180;52211;50.154;8.682;2023-08-24T12:29:30;99848.00;;;35.80
65569;BMP180;52211;50.154;8.682;2023-08-24T12:31:59;99838.00;;;35.80
65569;BMP180;52211;50.154;8.682;2023-08-24T12:34:26;99836.00;;;35.80
65569;BMP180;52211;50.154;8.682;2023-08-24T12:36:56;99826.00;;;35.80
65569;BMP180;52211;50.154;8.682;2023-08-24T12:39:25;99821.00;;;35.80
65569;BMP180;52211;50.154;8.682;2023-08-24T12:41:54;99821.00;;;35.70
65569;BMP180;52211;50.154;8.682;2023-08-24T12:44:25;99820.00;;;35.70
65569;BMP180;52211;50.154;8.682;2023-08-24T12:46:52;99825.00;;;35.60
65569;BMP180;52211;50.154;8.682;2023-08-24T12:49:24;99826.00;;;35.60
65569;BMP180;52211;50.154;8.682;2023-08-24T12:51:51;99825.00;;;35.50
65569;BMP180;52211;50.154;8.682;2023-08-24T12:54:18;99832.00;;;35.50
65569;BMP180;52211;50.154;8.682;2023-08-24T12:56:47;99837.00;;;35.50
65569;BMP180;52211;50.154;8.682;2023-08-24T12:59:18;99847.00;;;35.50
65569;BMP180;52211;50.154;8.682;2023-08-24T13:01:45;99840.00;;;35.50
65569;BMP180;52211;50.154;8.682;2023-08-24T13:04:12;99836.00;;;35.50
65569;BMP180;52211;50.154;8.682;2023-08-24T13:06:39;99846.00;;;35.50
65569;BMP180;52211;50.154;8.682;2023-08-24T13:09:06;99844.00;;;35.50
65569;BMP180;52211;50.154;8.682;2023-08-24T13:11:33;99832.00;;;35.50
65569;BMP180;52211;50.154;8.682;2023-08-24T13:14:00;99830.00;;;35.40
65569;BMP180;52211;50.154;8.682;2023-08-24T13:16:27;99810.00;;;35.40
65569;BMP180;52211;50.154;8.682;2023-08-24T13:18:55;99822.00;;;35.40
65569;BMP180;52211;50.154;8.682;2023-08-24T13:21:22;99808.00;;;35.40
65569;BMP180;52211;50.154;8.682;2023-08-24T13:23:49;99818.00;;;35.40
65569;BMP180;52211;50.154;8.682;2023-08-24T13:26:20;99819.00;;;35.40
65569;BMP180;52211;50.154;8.682;2023-08-24T13:28:48;99820.00;;;35.30
65569;BMP180;52211;50.154;8.682;2023-08-24T13:31:22;99827.00;;;35.30
65569;BMP180;52211;50.154;8.682;2023-08-24T13:33:51;99834.00;;;35.20
65569;BMP180;52211;50.154;8.682;2023-08-24T13:36:18;99835.00;;;35.20
65569;BMP180;52211;50.154;8.682;2023-08-24T13:38:45;99849.00;;;35.10
65569;BMP180;52211;50.154;8.682;2023-08-24T13:41:17;99847.00;;;35.10
65569;BMP180;52211;50.154;8.682;2023-08-24T13:43:46;99841.00;;;35.00
65569;BMP180;52211;50.154;8.682;2023-08-24T13:46:13;99847.00;;;34.90
65569;BMP180;52211;50.154;8.682;2023-08-24T13:48:43;99850.00;;;34.90
65569;BMP180;52211;50.154;8.682;2023-08-24T13:51:10;99853.00;;;34.80
65569;BMP180;52211;50.154;8.682;2023-08-24T13:53:38;99860.00;;;34.70
65569;BMP180;52211;50.154;8.682;2023-08-24T13:56:10;99862.00;;;34.60
65569;BMP180;52211;50.154;8.682;2023-08-24T13:58:37;99862.00;;;34.60
65569;BMP180;52211;50.154;8.682;2023-08-24T14:01:04;99852.00;;;34.60
65569;BMP180;52211;50.154;8.682;2023-08-24T14:03:39;99847.00;;;34.50
65569;BMP180;52211;50.154;8.682;2023-08-24T14:06:09;99847.00;;;34.60
65569;BMP180;52211;50.154;8.682;2023-08-24T14:08:37;99842.00;;;34.50
65569;BMP180;52211;50.154;8.682;2023-08-24T14:11:06;99843.00;;;34.50
65569;BMP180;52211;50.154;8.682;2023-08-24T14:13:33;99833.00;;;34.50
65569;BMP180;52211;50.154;8.682;2023-08-24T14:16:01;99827.00;;;34.50
65569;BMP180;52211;50.154;8.682;2023-08-24T14:18:28;99828.00;;;34.50
65569;BMP180;52211;50.154;8.682;2023-08-24T14:21:03;99799.00;;;34.40
65569;BMP180;52211;50.154;8.682;2023-08-24T14:23:30;99745.00;;;34.40
65569;BMP180;52211;50.154;8.682;2023-08-24T14:25:59;99703.00;;;34.40
65569;BMP180;52211;50.154;8.682;2023-08-24T14:31:20;99661.00;;;34.30
65569;BMP180;52211;50.154;8.682;2023-08-24T14:33:47;99654.00;;;34.20
65569;BMP180;52211;50.154;8.682;2023-08-24T14:36:17;99653.00;;;34.10
65569;BMP180;52211;50.154;8.682;2023-08-24T14:38:44;99684.00;;;34.10
65569;BMP180;52211;50.154;8.682;2023-08-24T14:41:14;99722.00;;;34.00